Time;durP1;ratioP1;P1;durP2;ratioP2;P2;SDS_P1;SDS_P2;PMS_P1;PMS_P2;Temp;Humidity;BMP_temperature;BMP_pressure;BME280_temperature;BME280_humidity;BME280_pressure;Samples;Min_cycle;Max_cycle;Signal;HPM_P1;HPM_P2
2022/04/15 00:01:46;;;;;;;9.07;4.32;;;13.20;99.90;;;;;;4899184;29;20410;-51
2022/04/15 00:04:13;;;;;;;6.40;4.13;;;13.20;99.90;;;;;;4899416;29;20044;-51
2022/04/15 00:06:39;;;;;;;8.77;3.75;;;13.30;99.90;;;;;;4899403;29;20524;-53
2022/04/15 00:09:06;;;;;;;8.00;4.30;;;13.30;99.90;;;;;;4896219;29;20082;-51
2022/04/15 00:11:33;;;;;;;6.45;3.67;;;13.30;99.90;;;;;;4898789;29;20048;-54
2022/04/15 00:14:03;;;;;;;9.63;3.83;;;13.30;99.90;;;;;;4899311;29;20100;-52
2022/04/15 00:16:30;;;;;;;8.00;3.60;;;13.30;99.90;;;;;;4899132;29;20703;-51
2022/04/15 00:18:57;;;;;;;5.78;3.08;;;13.30;99.90;;;;;;4891558;29;20044;-51
2022/04/15 00:21:24;;;;;;;7.15;4.00;;;13.20;99.90;;;;;;4898573;29;20040;-52
2022/04/15 00:23:55;;;;;;;8.25;4.00;;;13.20;99.90;;;;;;4899056;29;20105;-52
2022/04/15 00:26:22;;;;;;;8.82;4.13;;;13.10;99.90;;;;;;4892792;29;20045;-52
2022/04/15 00:28:49;;;;;;;8.48;3.70;;;12.90;99.90;;;;;;4898651;29;20052;-51
2022/04/15 00:31:16;;;;;;;;;;;12.90;99.90;;;;;;4899031;29;20117;-53
2022/04/15 00:33:43;;;;;;;15.95;4.85;;;12.90;99.90;;;;;;4898782;29;19923;-52
2022/04/15 00:36:09;;;;;;;9.30;4.55;;;12.80;99.90;;;;;;4898039;29;20045;-52
2022/04/15 00:38:36;;;;;;;8.13;4.07;;;12.70;99.90;;;;;;4898838;29;20044;-54
2022/04/15 00:41:03;;;;;;;8.07;3.63;;;12.70;99.90;;;;;;4881445;29;20463;-54
2022/04/15 00:43:30;;;;;;;8.82;3.83;;;12.50;99.90;;;;;;4898716;29;20100;-51
2022/04/15 00:46:08;;;;;;;8.77;5.10;;;12.50;99.90;;;;;;4896091;29;20048;-54
2022/04/15 00:48:36;;;;;;;10.02;5.57;;;12.30;99.90;;;;;;4891882;29;20048;-55
2022/04/15 00:51:06;;;;;;;10.30;8.13;;;12.00;99.90;;;;;;4898151;29;20049;-52
2022/04/15 00:53:36;;;;;;;13.40;9.10;;;12.30;99.90;;;;;;4898584;29;20049;-53
2022/04/15 00:56:05;;;;;;;14.10;9.65;;;11.90;99.90;;;;;;4893980;29;20450;-51
2022/04/15 00:58:35;;;;;;;14.02;9.07;;;12.00;99.90;;;;;;4897283;29;20037;-54
2022/04/15 01:01:02;;;;;;;16.20;9.38;;;12.00;99.90;;;;;;4897801;29;20049;-52
2022/04/15 01:03:30;;;;;;;13.55;8.10;;;12.10;99.90;;;;;;4898447;29;20076;-51
2022/04/15 01:06:03;;;;;;;10.88;8.32;;;12.20;99.90;;;;;;4892815;29;20049;-51
2022/04/15 01:08:31;;;;;;;13.05;8.93;;;12.20;99.90;;;;;;4890857;29;20059;-51
2022/04/15 01:11:00;;;;;;;15.90;10.02;;;12.30;99.90;;;;;;4897818;29;20078;-55
2022/04/15 01:13:31;;;;;;;16.48;9.98;;;12.40;99.90;;;;;;4893294;29;20053;-52
2022/04/15 01:15:59;;;;;;;16.48;10.43;;;12.50;99.90;;;;;;4897859;29;20083;-55
2022/04/15 01:18:26;;;;;;;13.05;9.30;;;12.60;99.90;;;;;;4898256;29;20041;-53
2022/04/15 01:20:53;;;;;;;17.88;9.30;;;12.60;99.90;;;;;;4897430;29;20092;-51
2022/04/15 01:23:20;;;;;;;15.40;10.00;;;12.60;99.90;;;;;;4895567;29;20041;-51
2022/04/15 01:25:48;;;;;;;13.40;9.50;;;12.50;99.90;;;;;;4897893;29;20088;-51
2022/04/15 01:28:19;;;;;;;14.30;10.27;;;12.50;99.90;;;;;;4897832;29;20060;-52
2022/04/15 01:30:47;;;;;;;21.08;10.43;;;12.60;99.90;;;;;;4891321;29;20049;-52
2022/04/15 01:33:14;;;;;;;;;;;12.60;99.90;;;;;;4898004;29;20127;-52
2022/04/15 01:35:46;;;;;;;15.02;9.85;;;12.60;99.90;;;;;;4897780;29;19938;-52
2022/04/15 01:38:17;;;;;;;14.07;9.75;;;12.70;99.90;;;;;;4897795;29;20041;-51
2022/04/15 01:40:44;;;;;;;19.42;10.50;;;12.70;99.90;;;;;;4893076;29;20047;-56
2022/04/15 01:43:11;;;;;;;15.73;10.60;;;12.70;99.90;;;;;;4897652;29;20045;-53
2022/04/15 01:45:38;;;;;;;16.45;10.48;;;12.70;99.90;;;;;;4897646;29;20040;-56
2022/04/15 01:48:05;;;;;;;15.98;9.45;;;12.70;99.90;;;;;;4896799;29;20049;-52
2022/04/15 01:50:32;;;;;;;14.38;8.07;;;12.60;99.90;;;;;;4897015;29;20435;-52
2022/04/15 01:52:59;;;;;;;10.50;7.40;;;12.30;99.90;;;;;;4897256;29;20048;-56
2022/04/15 01:55:27;;;;;;;19.95;11.02;;;12.10;99.90;;;;;;4897402;29;20124;-52
2022/04/15 01:57:55;;;;;;;17.13;11.77;;;12.00;99.90;;;;;;4892356;29;20052;-54
2022/04/15 02:00:22;;;;;;;12.88;8.50;;;12.30;99.90;;;;;;4880131;29;20063;-55
2022/04/15 02:02:49;;;;;;;17.08;11.02;;;12.50;99.90;;;;;;4897298;29;20052;-53
2022/04/15 02:05:16;;;;;;;10.55;6.22;;;12.70;99.90;;;;;;4897072;29;20040;-52
2022/04/15 02:07:43;;;;;;;11.60;6.63;;;12.60;99.90;;;;;;4893916;29;20059;-52
2022/04/15 02:10:10;;;;;;;13.02;8.35;;;12.40;99.90;;;;;;4896356;29;20056;-54
2022/04/15 02:12:37;;;;;;;11.38;6.43;;;12.30;99.90;;;;;;4897191;29;20455;-52
2022/04/15 02:15:04;;;;;;;9.48;6.65;;;12.10;99.90;;;;;;4893697;29;20506;-54
2022/04/15 02:17:31;;;;;;;;;;;12.10;99.90;;;;;;4880489;29;20096;-52
2022/04/15 02:24:35;;;;;;;19.10;11.18;;;12.30;99.90;;;;;;4858909;29;20080;-58
2022/04/15 02:27:02;;;;;;;16.48;10.82;;;12.40;99.90;;;;;;4878288;29;20045;-57
2022/04/15 02:29:29;;;;;;;14.50;8.43;;;12.60;99.90;;;;;;4877795;29;20085;-57
2022/04/15 02:31:55;;;;;;;16.33;9.55;;;12.50;99.90;;;;;;4892500;29;20505;-57
2022/04/15 02:34:22;;;;;;;16.25;9.80;;;12.50;99.90;;;;;;4895737;29;20083;-58
2022/04/15 02:36:49;;;;;;;17.43;10.77;;;12.50;99.90;;;;;;4897063;29;20048;-57
2022/04/15 02:39:16;;;;;;;17.45;9.45;;;12.50;99.90;;;;;;4905505;29;20308;-57
2022/04/15 02:41:42;;;;;;;13.00;9.00;;;12.50;99.90;;;;;;4896215;29;20498;-58
2022/04/15 02:44:09;;;;;;;13.52;8.50;;;12.50;99.90;;;;;;4896685;29;20045;-57
2022/04/15 02:46:36;;;;;;;14.20;8.75;;;12.50;99.90;;;;;;4895378;29;20413;-58
2022/04/15 02:49:04;;;;;;;15.52;8.65;;;12.50;99.90;;;;;;4893359;29;20064;-57
2022/04/15 02:51:31;;;;;;;12.25;8.23;;;12.50;99.90;;;;;;4896193;29;20078;-57
2022/04/15 02:53:58;;;;;;;18.25;9.55;;;12.50;99.90;;;;;;4896566;29;20104;-57
2022/04/15 02:56:24;;;;;;;10.57;6.68;;;12.60;99.90;;;;;;4895294;29;20044;-58
2022/04/15 02:58:51;;;;;;;8.18;4.90;;;12.50;99.90;;;;;;4896321;29;20409;-57
2022/04/15 03:01:18;;;;;;;10.30;5.25;;;12.40;99.90;;;;;;4895837;29;20044;-57
2022/04/15 03:03:45;;;;;;;10.40;5.07;;;12.20;99.90;;;;;;4895326;29;20475;-57
2022/04/15 03:06:11;;;;;;;10.90;5.68;;;12.20;99.90;;;;;;4894151;29;20104;-58
2022/04/15 03:08:38;;;;;;;10.07;5.32;;;12.20;99.90;;;;;;4896488;29;20044;-59
2022/04/15 03:11:06;;;;;;;12.68;5.38;;;12.20;99.90;;;;;;4895809;29;20097;-59
2022/04/15 03:13:34;;;;;;;8.32;4.75;;;12.10;99.90;;;;;;4890692;29;20041;-57
2022/04/15 03:16:04;;;;;;;12.77;5.45;;;12.10;99.90;;;;;;4896262;29;20068;-59
2022/04/15 03:18:30;;;;;;;10.48;4.38;;;12.00;99.90;;;;;;4896282;29;20585;-59
2022/04/15 03:20:58;;;;;;;11.27;4.72;;;12.00;99.90;;;;;;4892535;29;20113;-59
2022/04/15 03:23:24;;;;;;;8.90;5.63;;;12.00;99.90;;;;;;4899597;29;20092;-58
2022/04/15 03:25:51;;;;;;;8.00;5.47;;;12.00;99.90;;;;;;4900174;29;20501;-59
2022/04/15 03:28:19;;;;;;;9.45;5.25;;;12.10;99.90;;;;;;4900030;29;20056;-58
2022/04/15 03:30:46;;;;;;;8.63;5.22;;;12.20;99.90;;;;;;4894584;29;20049;-58
2022/04/15 03:33:13;;;;;;;9.63;5.68;;;12.20;99.90;;;;;;4899674;29;20055;-59
2022/04/15 03:35:39;;;;;;;11.35;6.30;;;12.20;99.90;;;;;;4900029;29;20049;-59
2022/04/15 03:38:06;;;;;;;9.90;6.03;;;12.30;99.90;;;;;;4899861;29;20084;-58
2022/04/15 03:40:33;;;;;;;13.35;6.82;;;12.30;99.90;;;;;;4893328;29;20093;-58
2022/04/15 03:43:00;;;;;;;11.00;6.30;;;12.30;99.90;;;;;;4899745;29;20044;-58
2022/04/15 03:45:27;;;;;;;;;;;12.40;99.90;;;;;;4900289;29;20545;-57
2022/04/15 03:47:54;;;;;;;16.10;8.45;;;12.40;99.90;;;;;;4898431;29;19923;-57
2022/04/15 03:50:22;;;;;;;19.17;9.15;;;12.40;99.90;;;;;;4899183;29;20044;-58
2022/04/15 03:52:49;;;;;;;17.42;10.70;;;12.20;99.90;;;;;;4899654;29;20059;-58
2022/04/15 03:55:17;;;;;;;19.30;10.75;;;12.20;99.90;;;;;;4899565;29;20060;-57
2022/04/15 03:57:44;;;;;;;14.95;9.50;;;12.10;99.90;;;;;;4894134;29;20044;-57
2022/04/15 04:00:13;;;;;;;;;;;12.00;99.90;;;;;;4899324;29;20044;-57
2022/04/15 04:02:43;;;;;;;10.45;7.10;;;11.80;99.90;;;;;;4899518;29;19946;-58
2022/04/15 04:05:10;;;;;;;9.55;7.65;;;11.70;99.90;;;;;;4894476;29;20119;-57
2022/04/15 04:07:37;;;;;;;16.00;8.20;;;11.70;99.90;;;;;;4899124;29;20048;-56
2022/04/15 04:10:04;;;;;;;9.25;7.22;;;11.60;99.90;;;;;;4898915;29;20052;-56
2022/04/15 04:12:33;;;;;;;13.15;8.00;;;11.50;99.90;;;;;;4899241;29;20052;-56
2022/04/15 04:15:02;;;;;;;16.77;8.65;;;11.50;99.90;;;;;;4894451;29;20087;-56
2022/04/15 04:17:28;;;;;;;13.65;8.50;;;11.50;99.90;;;;;;4898903;29;20100;-58
2022/04/15 04:19:55;;;;;;;16.15;8.70;;;11.50;99.90;;;;;;4898392;29;20044;-57
2022/04/15 04:22:29;;;;;;;19.20;8.93;;;11.50;99.90;;;;;;4899195;29;20044;-56
2022/04/15 04:24:57;;;;;;;17.50;9.70;;;11.50;99.90;;;;;;4895379;29;20051;-57
2022/04/15 04:27:24;;;;;;;17.15;9.73;;;11.50;99.90;;;;;;4898621;29;20063;-57
2022/04/15 04:29:51;;;;;;;17.02;10.88;;;11.50;99.90;;;;;;4898617;29;20096;-57
2022/04/15 04:32:19;;;;;;;15.88;10.85;;;11.60;99.90;;;;;;4898819;29;20104;-58
2022/04/15 04:34:47;;;;;;;15.45;10.20;;;11.60;99.90;;;;;;4893889;29;20101;-58
2022/04/15 04:37:14;;;;;;;17.02;11.13;;;11.50;99.90;;;;;;4898747;29;20391;-57
2022/04/15 04:39:41;;;;;;;16.77;12.18;;;11.50;99.90;;;;;;4898526;29;20037;-57
2022/04/15 04:42:07;;;;;;;18.88;12.07;;;11.50;99.90;;;;;;4893128;29;20052;-58
2022/04/15 04:44:36;;;;;;;19.95;11.57;;;11.50;99.90;;;;;;4898776;29;20044;-58
2022/04/15 04:47:04;;;;;;;15.07;10.20;;;11.50;99.90;;;;;;4898736;29;20104;-57
2022/04/15 04:49:31;;;;;;;19.85;12.02;;;11.40;99.90;;;;;;4898102;29;20489;-57
2022/04/15 04:51:58;;;;;;;16.92;10.75;;;11.40;99.90;;;;;;4897027;29;20455;-57
2022/04/15 04:54:25;;;;;;;19.27;12.75;;;11.40;99.90;;;;;;4881735;29;20569;-58
2022/04/15 04:56:51;;;;;;;20.05;11.60;;;11.40;99.90;;;;;;4898512;29;20077;-56
2022/04/15 04:59:18;;;;;;;17.13;10.98;;;11.40;99.90;;;;;;4898275;29;20053;-58
2022/04/15 05:01:45;;;;;;;18.67;11.85;;;11.40;99.90;;;;;;4895273;29;20048;-57
2022/04/15 05:04:12;;;;;;;20.52;10.60;;;11.30;99.90;;;;;;4898286;29;20057;-58
2022/04/15 05:06:38;;;;;;;13.93;11.13;;;11.40;99.90;;;;;;4898240;29;20052;-58
2022/04/15 05:09:05;;;;;;;21.67;14.98;;;11.40;99.90;;;;;;4898386;29;20458;-57
2022/04/15 05:11:32;;;;;;;25.77;16.88;;;11.40;99.90;;;;;;4894550;29;20040;-58
2022/04/15 05:13:58;;;;;;;32.97;18.77;;;11.50;99.90;;;;;;4897917;29;20474;-58
2022/04/15 05:16:25;;;;;;;30.92;18.20;;;11.50;99.90;;;;;;4897611;29;20458;-58
2022/04/15 05:18:52;;;;;;;24.73;15.73;;;11.60;99.90;;;;;;4898047;29;20052;-58
2022/04/15 05:21:19;;;;;;;20.77;12.55;;;11.60;99.90;;;;;;4890210;29;20037;-57
2022/04/15 05:23:45;;;;;;;18.70;11.13;;;11.70;99.90;;;;;;4897968;29;20049;-58
2022/04/15 05:26:13;;;;;;;14.80;10.68;;;11.70;99.90;;;;;;4895097;29;20141;-57
2022/04/15 05:28:41;;;;;;;13.93;10.90;;;11.60;99.90;;;;;;4897666;29;20498;-58
2022/04/15 05:31:09;;;;;;;18.55;11.77;;;11.70;99.90;;;;;;4895430;29;20044;-57
2022/04/15 05:33:36;;;;;;;19.15;11.40;;;11.70;99.90;;;;;;4897251;29;20053;-57
2022/04/15 05:36:03;;;;;;;21.95;12.27;;;11.60;99.90;;;;;;4897745;29;20056;-58
2022/04/15 05:38:30;;;;;;;16.88;11.82;;;11.60;99.90;;;;;;4895043;29;20048;-58
2022/04/15 05:40:57;;;;;;;17.02;10.30;;;11.70;99.90;;;;;;4897276;29;20105;-59
2022/04/15 05:43:23;;;;;;;15.55;11.18;;;11.70;99.90;;;;;;4896418;29;20108;-56
2022/04/15 05:45:50;;;;;;;18.42;10.77;;;11.60;99.90;;;;;;4897084;29;20112;-57
2022/04/15 05:48:17;;;;;;;19.00;11.82;;;11.50;99.90;;;;;;4890326;29;20124;-56
2022/04/15 05:50:44;;;;;;;25.42;14.10;;;11.50;99.90;;;;;;4897056;29;20589;-58
2022/04/15 05:53:14;;;;;;;18.38;13.98;;;11.50;99.90;;;;;;4897081;29;20073;-58
2022/04/15 05:55:40;;;;;;;21.30;13.93;;;11.50;99.90;;;;;;4892348;29;20052;-58
2022/04/15 05:58:10;;;;;;;28.00;15.90;;;11.60;99.90;;;;;;4894524;29;20048;-58
2022/04/15 06:00:37;;;;;;;21.67;14.52;;;11.60;99.90;;;;;;4896319;29;20040;-59
2022/04/15 06:03:04;;;;;;;24.20;14.07;;;11.70;99.90;;;;;;4897370;29;20048;-58
2022/04/15 06:05:32;;;;;;;24.98;15.75;;;11.80;99.90;;;;;;4891927;29;20084;-57
2022/04/15 06:07:59;;;;;;;34.50;19.13;;;11.90;99.90;;;;;;4897181;29;20057;-58
2022/04/15 06:10:26;;;;;;;;;;;12.00;99.90;;;;;;4897182;29;20100;-58
2022/04/15 06:13:02;;;;;;;25.25;15.63;;;12.10;99.90;;;;;;4896634;29;20061;-58
2022/04/15 06:15:33;;;;;;;18.77;12.63;;;12.10;99.90;;;;;;4889612;29;20048;-58
2022/04/15 06:18:00;;;;;;;20.30;12.43;;;12.10;99.90;;;;;;4897071;29;20053;-58
2022/04/15 06:20:28;;;;;;;20.42;12.50;;;12.10;99.90;;;;;;4896482;29;20045;-58
2022/04/15 06:22:55;;;;;;;20.98;12.82;;;12.10;99.90;;;;;;4895672;29;20060;-57
2022/04/15 06:25:22;;;;;;;18.17;13.15;;;12.10;99.90;;;;;;4896809;29;20049;-58
2022/04/15 06:27:52;;;;;;;;;;;12.00;99.90;;;;;;4897439;29;20052;-57
2022/04/15 06:30:21;;;;;;;21.65;14.45;;;12.10;99.90;;;;;;4896471;29;19923;-58
2022/04/15 06:32:48;;;;;;;22.65;15.20;;;12.00;99.90;;;;;;4889092;29;20063;-57
2022/04/15 06:35:14;;;;;;;26.83;18.40;;;12.10;99.90;;;;;;4896621;29;20481;-58
2022/04/15 06:37:41;;;;;;;29.23;19.80;;;12.10;99.90;;;;;;4896617;29;20040;-58
2022/04/15 06:40:09;;;;;;;32.40;19.45;;;12.10;99.90;;;;;;4896275;29;20049;-58
2022/04/15 06:42:35;;;;;;;33.55;20.70;;;12.10;99.90;;;;;;4890084;29;20096;-58
2022/04/15 06:45:03;;;;;;;32.83;20.52;;;12.10;99.90;;;;;;4895888;29;20045;-57
2022/04/15 06:47:30;;;;;;;28.77;19.67;;;12.10;99.90;;;;;;4896328;29;20442;-58
2022/04/15 06:49:56;;;;;;;30.40;20.02;;;12.20;99.90;;;;;;4894937;29;20045;-57
2022/04/15 06:52:24;;;;;;;31.60;20.98;;;12.20;99.90;;;;;;4896420;29;20056;-57
2022/04/15 06:54:50;;;;;;;31.17;19.75;;;12.20;99.90;;;;;;4896439;29;20094;-58
2022/04/15 06:57:17;;;;;;;24.92;17.58;;;12.20;99.90;;;;;;4895674;29;20056;-58
2022/04/15 06:59:44;;;;;;;29.33;17.65;;;12.40;99.90;;;;;;4895954;29;20044;-58
2022/04/15 07:02:10;;;;;;;26.77;17.88;;;12.40;99.90;;;;;;4896466;29;20053;-58
2022/04/15 07:04:37;;;;;;;30.90;19.63;;;12.40;99.90;;;;;;4895817;29;20053;-58
2022/04/15 07:07:04;;;;;;;31.25;19.13;;;12.40;99.90;;;;;;4893162;29;20049;-58
2022/04/15 07:09:31;;;;;;;36.70;21.85;;;12.50;99.90;;;;;;4895952;29;20045;-58
2022/04/15 07:11:58;;;;;;;36.38;22.23;;;12.50;99.90;;;;;;4879683;29;20470;-58
2022/04/15 07:14:25;;;;;;;34.55;22.27;;;12.60;99.90;;;;;;4890975;29;20112;-58
2022/04/15 07:16:51;;;;;;;33.92;23.10;;;12.60;99.90;;;;;;4896175;29;20053;-58
2022/04/15 07:19:18;;;;;;;44.10;25.33;;;12.60;99.90;;;;;;4895673;29;20132;-59
2022/04/15 07:21:45;;;;;;;34.03;22.88;;;12.50;99.90;;;;;;4890121;29;20033;-59
2022/04/15 07:24:12;;;;;;;37.30;24.15;;;12.50;99.90;;;;;;4894228;29;20458;-58
2022/04/15 07:26:38;;;;;;;34.63;23.63;;;12.50;99.90;;;;;;4896274;29;20048;-59
2022/04/15 07:29:05;;;;;;;39.42;23.98;;;12.40;99.90;;;;;;4896221;29;20113;-58
2022/04/15 07:31:33;;;;;;;38.15;24.88;;;12.40;99.90;;;;;;4890012;29;20040;-59
2022/04/15 07:34:00;;;;;;;39.13;25.17;;;12.50;99.90;;;;;;4895345;29;20056;-58
2022/04/15 07:39:06;;;;;;;37.13;22.50;;;12.80;99.90;;;;;;4895571;29;20040;-58
2022/04/15 07:41:36;;;;;;;32.65;22.63;;;12.80;99.90;;;;;;4889110;29;20045;-58
2022/04/15 07:44:04;;;;;;;33.88;22.17;;;12.80;99.90;;;;;;4895864;29;20140;-59
2022/04/15 07:46:32;;;;;;;33.67;22.98;;;12.70;99.90;;;;;;4896019;29;20048;-59
2022/04/15 07:48:59;;;;;;;31.88;22.67;;;12.70;99.90;;;;;;4896060;29;20056;-59
2022/04/15 07:51:29;;;;;;;44.25;25.13;;;12.60;99.90;;;;;;4889585;29;20648;-59
2022/04/15 07:53:56;;;;;;;39.17;25.80;;;12.60;99.90;;;;;;4895508;29;20057;-59
2022/04/15 07:56:23;;;;;;;40.72;27.17;;;12.50;99.90;;;;;;4895431;29;20053;-58
2022/04/15 07:58:50;;;;;;;44.42;27.17;;;12.40;99.90;;;;;;4891601;29;20044;-59
2022/04/15 08:01:17;;;;;;;;;;;12.40;99.90;;;;;;4894589;29;20044;-58
2022/04/15 08:03:45;;;;;;;45.25;25.90;;;12.40;99.90;;;;;;4895914;29;19959;-59
2022/04/15 08:06:13;;;;;;;37.60;25.50;;;12.30;99.90;;;;;;4895849;29;20052;-59
2022/04/15 08:08:39;;;;;;;47.42;28.05;;;12.20;99.90;;;;;;4894091;29;20080;-59
2022/04/15 08:11:06;;;;;;;55.03;30.55;;;12.20;99.90;;;;;;4898784;29;20100;-59
2022/04/15 08:13:33;;;;;;;44.70;27.80;;;12.20;99.90;;;;;;4899297;29;20456;-59
2022/04/15 08:16:00;;;;;;;47.67;29.15;;;12.20;99.90;;;;;;4899327;29;20131;-59
2022/04/15 08:18:27;;;;;;;46.10;30.20;;;12.20;99.90;;;;;;4881028;29;20412;-59
2022/04/15 08:20:56;;;;;;;46.88;29.50;;;12.20;99.90;;;;;;4921929;23;20056;-50
2022/04/15 08:23:23;;;;;;;51.20;32.35;;;12.20;99.90;;;;;;4916465;29;20032;-55
2022/04/15 08:25:50;;;;;;;73.00;35.58;;;12.30;99.90;;;;;;4903617;29;20493;-50
2022/04/15 08:28:21;;;;;;;48.97;30.35;;;12.30;99.90;;;;;;4916984;29;20044;-54
2022/04/15 08:30:48;;;;;;;55.75;31.35;;;12.40;99.90;;;;;;4917321;29;20052;-50
2022/04/15 08:33:15;;;;;;;45.30;29.38;;;12.50;99.90;;;;;;4917596;29;20052;-52
2022/04/15 08:35:42;;;;;;;44.65;27.73;;;12.60;99.90;;;;;;4913919;29;20045;-53
2022/04/15 08:38:09;;;;;;;42.45;28.38;;;12.60;99.90;;;;;;4915139;29;20044;-51
2022/04/15 08:40:37;;;;;;;43.35;27.02;;;12.60;99.90;;;;;;4917014;29;20036;-51
2022/04/15 08:43:06;;;;;;;42.20;26.67;;;12.70;99.90;;;;;;4917504;29;20052;-53
2022/04/15 08:45:37;;;;;;;41.15;28.23;;;12.70;99.90;;;;;;4913043;29;20040;-50
2022/04/15 08:48:09;;;;;;;44.63;28.35;;;12.80;99.90;;;;;;4917523;29;20052;-50
2022/04/15 08:50:35;;;;;;;46.13;28.73;;;12.80;99.90;;;;;;4916756;29;20557;-54
2022/04/15 08:53:04;;;;;;;40.75;27.63;;;12.80;99.90;;;;;;4917361;29;20048;-51
2022/04/15 08:55:31;;;;;;;43.65;28.02;;;12.90;99.90;;;;;;4910613;29;20047;-53
2022/04/15 08:57:58;;;;;;;;;;;12.80;99.90;;;;;;4917527;29;20040;-52
2022/04/15 09:00:29;;;;;;;39.85;27.88;;;12.80;99.90;;;;;;4916858;29;19934;-51
2022/04/15 09:02:57;;;;;;;50.03;27.95;;;12.80;99.90;;;;;;4917262;29;20498;-50
2022/04/15 09:05:26;;;;;;;44.17;28.33;;;12.80;99.90;;;;;;4916240;29;20064;-51
2022/04/15 09:08:10;;;;;;;43.25;26.92;;;12.80;99.90;;;;;;4917122;29;20247;-54
2022/04/15 09:10:40;;;;;;;64.85;29.77;;;12.90;99.90;;;;;;4915913;29;20083;-53
2022/04/15 09:13:17;;;;;;;39.10;27.20;;;13.00;99.90;;;;;;4914275;29;20052;-52
2022/04/15 09:15:44;;;;;;;43.25;27.67;;;13.00;99.90;;;;;;4916695;29;20052;-51
2022/04/15 09:18:36;;;;;;;43.35;28.27;;;13.00;99.90;;;;;;4916269;29;20127;-54
2022/04/15 09:21:20;;;;;;;43.60;28.42;;;13.20;99.90;;;;;;4913818;29;20472;-54
2022/04/15 09:23:52;;;;;;;43.58;27.15;;;13.30;99.90;;;;;;4916906;29;20040;-51
2022/04/15 09:26:23;;;;;;;41.75;26.45;;;13.40;99.90;;;;;;4916670;29;20044;-52
2022/04/15 09:28:53;;;;;;;43.15;28.38;;;13.60;99.90;;;;;;4914950;29;20043;-54
2022/04/15 09:31:21;;;;;;;41.25;26.75;;;13.80;99.90;;;;;;4916092;29;20044;-55
2022/04/15 09:33:59;;;;;;;37.45;26.63;;;14.20;99.90;;;;;;4916701;29;20128;-53
2022/04/15 09:36:37;;;;;;;36.55;25.10;;;14.50;99.90;;;;;;4916721;29;20052;-54
2022/04/15 09:39:11;;;;;;;;;;;14.60;99.90;;;;;;4913838;29;20051;-55
2022/04/15 09:41:40;;;;;;;36.33;23.77;;;14.70;99.90;;;;;;4915983;29;19927;-52
2022/04/15 09:44:11;;;;;;;32.00;21.67;;;14.70;99.90;;;;;;4916439;29;20042;-51
2022/04/15 09:46:41;;;;;;;30.80;20.90;;;14.70;99.90;;;;;;4916214;29;20056;-55
2022/04/15 09:49:09;;;;;;;35.55;21.60;;;14.80;99.90;;;;;;4912387;29;20055;-53
2022/04/15 09:51:44;;;;;;;29.33;21.48;;;14.60;99.90;;;;;;4916203;29;20044;-55
2022/04/15 09:54:25;;;;;;;30.65;22.25;;;14.90;99.90;;;;;;4916318;29;20501;-54
2022/04/15 09:56:54;;;;;;;28.45;20.38;;;15.20;99.90;;;;;;4913180;29;20417;-55
2022/04/15 09:59:30;;;;;;;30.73;20.65;;;15.30;99.90;;;;;;4915838;29;20048;-56
2022/04/15 10:02:02;;;;;;;32.38;22.98;;;15.30;99.90;;;;;;4914609;29;20040;-54
2022/04/15 10:04:30;;;;;;;31.55;23.02;;;15.50;99.90;;;;;;4916201;29;20076;-55
2022/04/15 10:06:57;;;;;;;;;;;15.60;99.90;;;;;;4908533;29;20107;-54
2022/04/15 10:09:25;;;;;;;32.55;21.17;;;15.70;99.90;;;;;;4915526;29;19927;-52
2022/04/15 10:11:52;;;;;;;30.27;22.00;;;15.90;99.90;;;;;;4915966;29;20056;-55
2022/04/15 10:14:21;;;;;;;32.85;22.30;;;16.10;99.90;;;;;;4915782;29;20071;-54
2022/04/15 10:16:48;;;;;;;30.85;21.13;;;16.40;99.90;;;;;;4914933;29;20044;-56
2022/04/15 10:19:15;;;;;;;30.95;21.98;;;16.60;99.90;;;;;;4915656;29;20055;-56
2022/04/15 10:21:45;;;;;;;30.95;22.25;;;16.80;99.90;;;;;;4915105;29;20096;-55
2022/04/15 10:24:13;;;;;;;34.92;24.63;;;16.90;99.90;;;;;;4895907;29;20100;-54
2022/04/15 10:26:45;;;;;;;33.97;24.55;;;17.00;99.90;;;;;;4914021;29;20044;-55
2022/04/15 10:29:13;;;;;;;33.00;22.73;;;17.00;99.90;;;;;;4915500;29;20056;-53
2022/04/15 10:31:52;;;;;;;31.15;21.33;;;17.00;99.90;;;;;;4914319;29;20052;-54
2022/04/15 10:34:21;;;;;;;34.80;23.88;;;16.90;99.90;;;;;;4914303;29;20056;-54
2022/04/15 10:36:53;;;;;;;36.72;23.67;;;16.50;99.90;;;;;;4915611;29;20116;-55
2022/04/15 10:39:26;;;;;;;31.30;22.13;;;16.40;99.90;;;;;;4915102;29;20561;-55
2022/04/15 10:41:55;;;;;;;32.67;22.70;;;16.40;99.90;;;;;;4908418;29;20043;-55
2022/04/15 10:44:28;;;;;;;30.95;21.85;;;16.60;99.90;;;;;;4915438;29;20454;-55
2022/04/15 10:46:59;;;;;;;28.55;21.83;;;17.00;99.90;;;;;;4915517;29;20040;-56
2022/04/15 10:49:30;;;;;;;32.90;21.30;;;16.90;99.90;;;;;;4914998;29;20052;-55
2022/04/15 10:52:02;;;;;;;30.88;19.77;;;17.10;99.90;;;;;;4914927;29;20048;-55
2022/04/15 10:54:42;;;;;;;26.02;19.55;;;17.20;99.90;;;;;;4896479;29;20058;-54
2022/04/15 10:57:11;;;;;;;29.83;19.98;;;17.40;99.90;;;;;;4896541;29;20072;-54
2022/04/15 11:02:37;;;;;;;24.08;17.73;;;17.40;99.90;;;;;;4914897;29;20052;-52
2022/04/15 11:05:05;;;;;;;23.40;17.40;;;17.50;99.90;;;;;;4915383;29;20048;-54
2022/04/15 11:07:56;;;;;;;23.85;17.15;;;18.00;99.90;;;;;;4915268;29;20088;-54
2022/04/15 11:10:42;;;;;;;19.40;15.18;;;18.50;99.90;;;;;;4913997;29;20043;-54
2022/04/15 11:13:28;;;;;;;20.58;15.70;;;18.90;99.90;;;;;;4915029;29;20048;-54
2022/04/15 11:16:06;;;;;;;22.27;14.23;;;19.20;99.90;;;;;;4915416;29;20067;-54
2022/04/15 11:18:50;;;;;;;22.70;17.30;;;19.00;99.90;;;;;;4910354;29;20115;-54
2022/04/15 11:21:37;;;;;;;27.63;19.75;;;18.80;99.90;;;;;;4914438;29;20049;-51
2022/04/15 11:24:06;;;;;;;25.73;18.80;;;18.60;99.90;;;;;;4915002;29;20450;-54
2022/04/15 11:26:34;;;;;;;23.45;16.33;;;18.60;99.90;;;;;;4911350;29;20107;-55
2022/04/15 11:29:02;;;;;;;26.30;17.38;;;18.50;99.90;;;;;;4914925;29;20070;-54
2022/04/15 11:31:34;;;;;;;23.48;16.15;;;18.20;99.90;;;;;;4914741;29;20470;-54
2022/04/15 11:34:05;;;;;;;20.58;14.65;;;17.90;99.90;;;;;;4898259;29;20056;-55
2022/04/15 11:36:34;;;;;;;24.80;14.88;;;17.60;99.90;;;;;;4906843;29;20374;-52
2022/04/15 11:39:03;;;;;;;20.83;15.38;;;17.40;99.90;;;;;;4914541;29;20453;-52
2022/04/15 11:41:30;;;;;;;19.98;15.75;;;17.10;99.90;;;;;;4914476;29;20048;-55
2022/04/15 11:44:05;;;;;;;21.33;15.52;;;16.50;99.90;;;;;;4917308;29;20044;-54
2022/04/15 11:46:35;;;;;;;20.70;15.80;;;16.00;99.90;;;;;;4911256;29;20044;-55
2022/04/15 11:49:04;;;;;;;23.02;17.10;;;15.70;99.90;;;;;;4918352;29;20079;-51
2022/04/15 11:51:31;;;;;;;18.20;14.30;;;15.70;99.90;;;;;;4917319;29;20048;-51
2022/04/15 11:53:59;;;;;;;18.10;14.48;;;15.70;99.90;;;;;;4914544;29;20082;-53
2022/04/15 11:56:26;;;;;;;22.02;12.65;;;15.90;99.90;;;;;;4918226;29;20071;-51
2022/04/15 11:58:53;;;;;;;13.73;10.27;;;16.00;99.90;;;;;;4918279;29;20104;-52
2022/04/15 12:01:31;;;;;;;17.85;11.75;;;16.00;99.90;;;;;;4916825;29;20052;-52
2022/04/15 12:03:59;;;;;;;21.90;12.43;;;16.00;99.90;;;;;;4918041;29;20496;-54
2022/04/15 12:06:32;;;;;;;15.82;10.52;;;15.90;99.90;;;;;;4918221;29;20044;-55
2022/04/15 12:08:58;;;;;;;22.90;12.63;;;15.90;99.90;;;;;;4918228;29;20469;-53
2022/04/15 12:11:26;;;;;;;21.27;14.65;;;15.90;99.90;;;;;;4910451;29;20457;-55
2022/04/15 12:14:00;;;;;;;20.17;12.88;;;15.90;99.90;;;;;;4917902;29;20047;-51
2022/04/15 12:16:29;;;;;;;19.25;13.25;;;15.90;99.90;;;;;;4918073;29;20055;-51
2022/04/15 12:18:59;;;;;;;17.30;12.80;;;15.80;99.90;;;;;;4913488;29;20055;-54
2022/04/15 12:21:27;;;;;;;18.88;12.77;;;15.90;99.90;;;;;;4917197;29;20131;-52
2022/04/15 12:24:18;;;;;;;21.63;13.82;;;15.90;99.90;;;;;;4918060;29;20398;-51
2022/04/15 12:26:47;;;;;;;18.45;13.35;;;16.00;99.90;;;;;;4911361;29;20048;-51
2022/04/15 12:32:32;;;;;;;16.80;13.18;;;16.50;99.90;;;;;;4917963;29;20048;-55
2022/04/15 12:34:59;;;;;;;17.88;12.60;;;17.10;99.90;;;;;;4917833;29;20056;-53
2022/04/15 12:37:49;;;;;;;19.13;12.35;;;17.70;99.90;;;;;;4910080;29;20501;-51
2022/04/15 12:40:19;;;;;;;15.73;12.00;;;17.80;99.90;;;;;;4916908;29;20048;-55
2022/04/15 12:42:49;;;;;;;13.80;9.68;;;18.10;99.90;;;;;;4916918;29;20048;-52
2022/04/15 12:45:17;;;;;;;18.17;11.50;;;18.40;99.90;;;;;;4908337;29;20047;-55
2022/04/15 12:47:57;;;;;;;16.08;11.10;;;19.00;99.90;;;;;;4917499;29;20082;-52
2022/04/15 12:50:29;;;;;;;34.67;21.35;;;19.00;99.90;;;;;;4917161;29;20455;-54
2022/04/15 12:52:58;;;;;;;17.73;12.32;;;18.90;99.90;;;;;;4915597;29;20064;-55
2022/04/15 12:55:31;;;;;;;18.15;11.98;;;19.00;99.90;;;;;;4916911;29;20103;-55